createdAt,value
2023-03-17T00:00:55.955Z,2.33
2023-03-17T00:03:29.653Z,3.03
2023-03-17T00:06:01.808Z,3.70
2023-03-17T00:08:34.825Z,2.83
2023-03-17T00:11:04.700Z,3.63
2023-03-17T00:13:35.318Z,2.53
2023-03-17T00:16:08.948Z,2.50
2023-03-17T00:18:39.193Z,4.20
2023-03-17T00:21:14.857Z,4.97
2023-03-17T00:23:48.748Z,2.70
2023-03-17T00:26:19.340Z,2.70
2023-03-17T00:28:49.125Z,3.10
2023-03-17T00:31:22.495Z,2.87
2023-03-17T00:33:55.468Z,3.17
2023-03-17T00:36:29.390Z,2.93
2023-03-17T00:38:59.512Z,3.03
2023-03-17T00:41:29.662Z,2.50
2023-03-17T00:43:59.187Z,3.27
2023-03-17T00:46:38.326Z,2.63
2023-03-17T00:49:23.695Z,2.40
2023-03-17T00:51:54.140Z,4.67
2023-03-17T00:54:24.113Z,2.43
2023-03-17T00:56:54.073Z,3.23
2023-03-17T00:59:33.607Z,2.70
2023-03-17T01:02:03.132Z,3.07
2023-03-17T01:04:33.849Z,3.60
2023-03-17T01:07:03.545Z,5.23
2023-03-17T01:09:33.898Z,3.13
2023-03-17T01:12:03.346Z,2.83
2023-03-17T01:14:32.766Z,2.73
2023-03-17T01:17:02.218Z,3.87
2023-03-17T01:19:31.636Z,3.87
2023-03-17T01:22:01.743Z,1.90
2023-03-17T01:24:31.839Z,3.23
2023-03-17T01:27:01.284Z,2.50
2023-03-17T01:29:30.777Z,3.23
2023-03-17T01:32:00.391Z,2.67
2023-03-17T01:34:29.792Z,2.53
2023-03-17T01:36:59.925Z,2.57
2023-03-17T01:39:29.514Z,4.43
2023-03-17T01:42:01.452Z,2.80
2023-03-17T01:44:30.885Z,3.13
2023-03-17T01:47:01.122Z,3.20
2023-03-17T01:49:38.105Z,2.97
2023-03-17T01:52:17.245Z,2.53
2023-03-17T01:55:02.390Z,3.83
2023-03-17T01:57:39.800Z,2.87
2023-03-17T02:00:19.723Z,2.63
2023-03-17T02:02:54.060Z,2.90
2023-03-17T02:05:31.009Z,3.03
2023-03-17T02:08:01.085Z,3.37
2023-03-17T02:10:32.373Z,3.77
2023-03-17T02:13:06.002Z,3.40
2023-03-17T02:15:48.964Z,4.23
2023-03-17T02:18:22.589Z,4.03
2023-03-17T02:21:17.092Z,3.97
2023-03-17T02:23:46.737Z,4.53
2023-03-17T02:26:16.230Z,3.63
2023-03-17T02:28:46.131Z,3.70
2023-03-17T02:31:16.455Z,3.13
2023-03-17T02:33:46.097Z,3.97
2023-03-17T02:36:15.767Z,5.27
2023-03-17T02:38:45.307Z,4.20
2023-03-17T02:41:14.725Z,3.87
2023-03-17T02:43:44.172Z,3.10
2023-03-17T02:46:13.926Z,3.97
2023-03-17T02:48:44.069Z,3.20
2023-03-17T02:51:14.105Z,2.37
2023-03-17T02:53:43.618Z,3.13
2023-03-17T02:56:13.512Z,3.30
2023-03-17T02:58:42.953Z,2.37
2023-03-17T03:01:13.060Z,4.00
2023-03-17T03:03:42.508Z,2.27
2023-03-17T03:06:11.932Z,2.53
2023-03-17T03:08:41.380Z,2.60
2023-03-17T03:11:10.796Z,3.23
2023-03-17T03:13:40.534Z,2.30
2023-03-17T03:16:10.370Z,2.30
2023-03-17T03:18:39.817Z,2.47
2023-03-17T03:21:10.533Z,2.37
2023-03-17T03:23:40.113Z,2.60
2023-03-17T03:26:09.597Z,2.47
2023-03-17T03:28:39.112Z,2.83
2023-03-17T03:31:09.870Z,2.83
2023-03-17T03:33:39.617Z,4.43
2023-03-17T03:36:09.802Z,2.67
2023-03-17T03:38:39.260Z,2.63
2023-03-17T03:41:09.334Z,2.70
2023-03-17T03:43:39.011Z,2.40
2023-03-17T03:46:08.885Z,2.30
2023-03-17T03:48:38.303Z,2.20
2023-03-17T03:51:07.870Z,2.40
2023-03-17T03:53:37.302Z,3.97
2023-03-17T03:56:07.255Z,2.43
2023-03-17T03:58:36.705Z,3.47
2023-03-17T04:01:09.453Z,3.23
2023-03-17T04:03:40.473Z,2.67
2023-03-17T04:06:11.241Z,2.93
2023-03-17T04:08:40.689Z,2.80
2023-03-17T04:11:10.103Z,2.77
2023-03-17T04:13:39.538Z,3.90
2023-03-17T04:16:09.407Z,4.27
2023-03-17T04:18:38.948Z,3.63
2023-03-17T04:21:08.432Z,3.77
2023-03-17T04:23:37.857Z,3.27
2023-03-17T04:26:07.538Z,4.00
2023-03-17T04:28:37.505Z,4.00
2023-03-17T04:31:07.734Z,2.67
2023-03-17T04:33:37.287Z,2.90
2023-03-17T04:36:07.867Z,2.93
2023-03-17T04:38:37.323Z,4.47
2023-03-17T04:41:06.822Z,2.83
2023-03-17T04:43:36.304Z,2.43
2023-03-17T04:46:06.092Z,3.17
2023-03-17T04:48:36.316Z,2.80
2023-03-17T04:51:06.447Z,3.57
2023-03-17T04:53:35.879Z,3.53
2023-03-17T04:56:05.622Z,3.47
2023-03-17T04:58:35.119Z,3.37
2023-03-17T05:01:05.232Z,2.75
2023-03-17T05:03:34.950Z,3.20
2023-03-17T05:06:06.078Z,3.67
2023-03-17T05:08:35.950Z,4.90
2023-03-17T05:11:05.444Z,3.27
2023-03-17T05:13:34.901Z,2.37
2023-03-17T05:16:04.327Z,4.97
2023-03-17T05:18:34.150Z,4.10
2023-03-17T05:21:03.638Z,4.17
2023-03-17T05:23:33.087Z,3.63
2023-03-17T05:26:02.770Z,4.20
2023-03-17T05:28:32.444Z,3.43
2023-03-17T05:31:02.702Z,4.00
2023-03-17T05:33:32.143Z,4.30
2023-03-17T05:36:01.659Z,4.13
2023-03-17T05:38:31.095Z,3.30
2023-03-17T05:41:00.522Z,4.33
2023-03-17T05:43:29.967Z,2.97
2023-03-17T05:45:59.403Z,3.13
2023-03-17T05:48:28.855Z,3.90
2023-03-17T05:50:58.351Z,3.23
2023-03-17T05:53:28.269Z,4.17
2023-03-17T05:55:57.760Z,3.10
2023-03-17T05:58:27.198Z,3.57
2023-03-17T06:00:56.922Z,4.13
2023-03-17T06:03:26.484Z,4.50
2023-03-17T06:05:55.942Z,5.23
2023-03-17T06:08:25.409Z,3.93
2023-03-17T06:10:54.836Z,3.53
2023-03-17T06:13:24.262Z,2.90
2023-03-17T06:15:53.763Z,5.37
2023-03-17T06:18:23.224Z,3.30
2023-03-17T06:20:52.746Z,4.43
2023-03-17T06:23:23.711Z,4.47
2023-03-17T06:25:53.156Z,3.17
2023-03-17T06:28:23.218Z,4.57
2023-03-17T06:30:52.697Z,4.50
2023-03-17T06:33:22.431Z,3.20
2023-03-17T06:35:52.222Z,3.37
2023-03-17T06:38:21.818Z,3.10
2023-03-17T06:40:51.729Z,3.20
2023-03-17T06:43:22.225Z,3.00
2023-03-17T06:45:52.419Z,2.63
2023-03-17T06:48:23.585Z,4.20
2023-03-17T06:50:53.027Z,4.00
2023-03-17T06:53:23.046Z,2.30
2023-03-17T06:55:52.475Z,3.17
2023-03-17T06:58:21.981Z,4.07
2023-03-17T07:00:53.485Z,3.70
2023-03-17T07:03:24.246Z,3.30
2023-03-17T07:05:54.664Z,2.13
2023-03-17T07:08:24.175Z,3.73
2023-03-17T07:10:59.002Z,3.60
2023-03-17T07:13:28.419Z,3.33
2023-03-17T07:16:00.437Z,2.70
2023-03-17T07:18:30.933Z,2.93
2023-03-17T07:21:02.389Z,3.07
2023-03-17T07:23:31.898Z,3.40
2023-03-17T07:26:01.421Z,3.50
2023-03-17T07:28:31.121Z,3.07
2023-03-17T07:31:02.224Z,4.50
2023-03-17T07:33:33.351Z,3.27
2023-03-17T07:36:03.123Z,2.63
2023-03-17T07:38:32.561Z,3.00
2023-03-17T07:41:03.600Z,3.33
2023-03-17T07:43:33.398Z,3.33
2023-03-17T07:46:06.139Z,3.43
2023-03-17T07:48:36.006Z,3.60
2023-03-17T07:51:05.512Z,3.40
2023-03-17T07:53:35.441Z,2.80
2023-03-17T07:56:04.988Z,3.17
2023-03-17T07:58:34.869Z,3.83
2023-03-17T08:01:04.995Z,2.80
2023-03-17T08:03:34.557Z,3.57
2023-03-17T08:06:06.122Z,3.27
2023-03-17T08:08:35.996Z,4.70
2023-03-17T08:11:07.693Z,3.10
2023-03-17T08:13:37.305Z,2.67
2023-03-17T08:16:07.307Z,3.33
2023-03-17T08:18:37.129Z,3.60
2023-03-17T08:21:07.006Z,4.33
2023-03-17T08:23:36.522Z,3.23
2023-03-17T08:26:06.870Z,3.60
2023-03-17T08:28:37.440Z,3.33
2023-03-17T08:31:19.368Z,2.97
2023-03-17T08:33:52.803Z,3.03
2023-03-17T08:36:24.138Z,4.40
2023-03-17T08:38:54.697Z,3.23
2023-03-17T08:41:28.151Z,2.60
2023-03-17T08:43:58.254Z,2.57
2023-03-17T08:46:32.298Z,2.50
2023-03-17T08:49:03.292Z,2.17
2023-03-17T08:51:36.798Z,3.27
2023-03-17T08:54:07.736Z,4.40
2023-03-17T08:56:37.795Z,4.00
2023-03-17T08:59:09.241Z,2.83
2023-03-17T09:01:40.180Z,3.00
2023-03-17T09:04:09.695Z,4.00
2023-03-17T09:06:44.082Z,3.13
2023-03-17T09:09:10.991Z,3.43
2023-03-17T09:11:40.525Z,2.73
2023-03-17T09:14:09.967Z,2.60
2023-03-17T09:16:39.404Z,3.10
2023-03-17T09:19:08.854Z,4.10
2023-03-17T09:21:38.299Z,4.43
2023-03-17T09:24:08.520Z,3.30
2023-03-17T09:26:38.609Z,3.77
2023-03-17T09:29:09.163Z,2.87
2023-03-17T09:31:38.899Z,2.63
2023-03-17T09:34:09.057Z,3.37
2023-03-17T09:36:38.530Z,3.00
2023-03-17T09:39:08.855Z,2.40
2023-03-17T09:41:58.081Z,3.30
2023-03-17T09:44:50.372Z,3.80
2023-03-17T09:47:32.940Z,3.67
2023-03-17T09:50:12.749Z,5.77
2023-03-17T09:52:43.209Z,2.47
2023-03-17T09:55:19.833Z,3.33
2023-03-17T09:57:53.027Z,2.83
2023-03-17T10:00:28.391Z,3.60
2023-03-17T10:02:59.745Z,2.70
2023-03-17T10:05:34.162Z,3.97
2023-03-17T10:08:32.508Z,3.00
2023-03-17T10:11:11.139Z,3.03
2023-03-17T10:14:38.249Z,3.50
2023-03-17T10:17:23.039Z,3.00
2023-03-17T10:20:04.275Z,2.20
2023-03-17T10:22:57.494Z,2.87
2023-03-17T10:25:34.591Z,3.03
2023-03-17T10:28:27.109Z,2.40
2023-03-17T10:31:17.867Z,3.63
2023-03-17T10:33:53.470Z,2.43
2023-03-17T10:36:42.476Z,3.23
2023-03-17T10:39:33.746Z,2.30
2023-03-17T10:42:11.317Z,2.73
2023-03-17T10:44:56.993Z,2.07
2023-03-17T10:47:39.780Z,2.23
2023-03-17T10:50:32.794Z,3.13
2023-03-17T10:53:09.245Z,3.63
2023-03-17T10:55:51.757Z,2.97
2023-03-17T10:58:41.588Z,3.90
2023-03-17T11:01:30.224Z,2.23
2023-03-17T11:04:02.112Z,3.63
2023-03-17T11:06:42.352Z,3.20
2023-03-17T11:09:16.808Z,2.40
2023-03-17T11:11:52.776Z,2.43
2023-03-17T11:14:25.430Z,2.13
2023-03-17T11:17:10.857Z,2.40
2023-03-17T11:20:01.134Z,2.57
2023-03-17T11:22:38.098Z,3.03
2023-03-17T11:25:20.361Z,2.40
2023-03-17T11:28:03.441Z,2.47
2023-03-17T11:30:40.690Z,3.07
2023-03-17T11:33:49.788Z,2.63
2023-03-17T11:36:41.276Z,2.37
2023-03-17T11:39:39.447Z,2.37
2023-03-17T11:42:28.373Z,2.83
2023-03-17T11:45:35.798Z,2.37
2023-03-17T11:48:28.161Z,2.63
2023-03-17T11:51:08.184Z,4.47
2023-03-17T11:54:18.751Z,2.33
2023-03-17T11:56:55.701Z,2.93
2023-03-17T12:00:00.278Z,2.60
2023-03-17T12:02:43.237Z,3.17
2023-03-17T12:05:23.741Z,3.27
2023-03-17T12:08:00.710Z,2.47
2023-03-17T12:10:41.246Z,2.30
2023-03-17T12:13:24.103Z,4.07
2023-03-17T12:16:11.433Z,2.73
2023-03-17T12:19:09.804Z,2.30
2023-03-17T12:21:50.404Z,3.00
2023-03-17T12:24:54.596Z,2.80
2023-03-17T12:27:34.394Z,2.53
2023-03-17T12:30:36.049Z,3.27
2023-03-17T12:33:52.556Z,2.30
2023-03-17T12:36:23.509Z,3.10
2023-03-17T12:39:10.219Z,2.70
2023-03-17T12:42:14.501Z,2.80
2023-03-17T12:45:07.858Z,3.33
2023-03-17T12:47:50.657Z,2.90
2023-03-17T12:50:36.741Z,3.17
2023-03-17T12:53:22.755Z,2.97
2023-03-17T12:55:55.798Z,1.90
2023-03-17T12:58:29.840Z,1.57
2023-03-17T13:01:17.272Z,2.10
2023-03-17T13:04:09.035Z,2.90
2023-03-17T13:06:45.762Z,2.20
2023-03-17T13:09:45.132Z,2.53
2023-03-17T13:12:44.662Z,2.40
2023-03-17T13:15:39.729Z,1.97
2023-03-17T13:18:19.502Z,2.30
2023-03-17T13:21:05.821Z,2.33
2023-03-17T13:23:56.543Z,3.47
2023-03-17T13:27:02.086Z,2.83
2023-03-17T13:29:39.100Z,2.03
2023-03-17T13:32:28.068Z,1.83
2023-03-17T13:35:05.522Z,2.20
2023-03-17T13:37:54.084Z,3.97
2023-03-17T13:40:58.067Z,1.90
2023-03-17T13:43:38.227Z,2.17
2023-03-17T13:46:41.394Z,1.80
2023-03-17T13:49:32.041Z,2.37
2023-03-17T13:52:17.696Z,1.90
2023-03-17T13:54:54.817Z,2.40
2023-03-17T13:57:31.407Z,2.00
2023-03-17T14:00:17.924Z,3.47
2023-03-17T14:02:50.651Z,2.60
2023-03-17T14:05:35.224Z,3.10
2023-03-17T14:08:23.788Z,2.57
2023-03-17T14:11:01.640Z,2.50
2023-03-17T14:13:42.036Z,2.83
2023-03-17T14:16:19.378Z,2.60
2023-03-17T14:18:59.151Z,3.37
2023-03-17T14:21:36.635Z,3.23
2023-03-17T14:24:25.678Z,3.40
2023-03-17T14:26:55.869Z,3.67
2023-03-17T14:29:29.979Z,2.90
2023-03-17T14:32:09.815Z,2.50
2023-03-17T14:34:58.281Z,2.10
2023-03-17T14:37:29.520Z,1.60
2023-03-17T14:40:00.242Z,1.63
2023-03-17T14:42:32.988Z,1.73
2023-03-17T14:45:08.133Z,2.13
2023-03-17T14:47:43.417Z,1.23
2023-03-17T14:50:23.448Z,1.60
2023-03-17T14:52:52.961Z,1.50
2023-03-17T14:55:22.679Z,1.70
2023-03-17T14:57:54.091Z,1.40
2023-03-17T15:00:39.730Z,1.43
2023-03-17T15:03:23.151Z,2.17
2023-03-17T15:05:54.312Z,1.90
2023-03-17T15:08:43.385Z,1.57
2023-03-17T15:11:26.569Z,1.77
2023-03-17T15:14:09.882Z,1.60
2023-03-17T15:16:42.652Z,2.03
2023-03-17T15:19:28.963Z,1.70
2023-03-17T15:22:00.376Z,2.20
2023-03-17T15:24:44.125Z,1.37
2023-03-17T15:27:19.505Z,1.40
2023-03-17T15:29:48.952Z,1.77
2023-03-17T15:32:23.399Z,2.03
2023-03-17T15:34:57.034Z,4.20
2023-03-17T15:37:32.847Z,2.43
2023-03-17T15:40:05.651Z,2.23
2023-03-17T15:42:38.386Z,1.57
2023-03-17T15:45:09.729Z,1.70
2023-03-17T15:47:41.267Z,2.00
2023-03-17T15:50:22.593Z,1.70
2023-03-17T15:52:57.288Z,1.93
2023-03-17T15:55:32.473Z,1.97
2023-03-17T15:58:02.535Z,1.20
2023-03-17T16:00:33.360Z,1.80
2023-03-17T16:03:08.355Z,1.60
2023-03-17T16:05:38.674Z,1.30
2023-03-17T16:08:09.651Z,2.20
2023-03-17T16:10:39.114Z,1.67
2023-03-17T16:13:08.541Z,1.97
2023-03-17T16:15:44.593Z,2.23
2023-03-17T16:18:19.061Z,2.40
2023-03-17T16:20:56.189Z,2.83
2023-03-17T16:23:29.981Z,1.80
2023-03-17T16:26:13.831Z,1.50
2023-03-17T16:28:34.880Z,2.00
2023-03-17T16:31:06.663Z,1.37
2023-03-17T16:33:40.301Z,1.90
2023-03-17T16:36:12.975Z,1.40
2023-03-17T16:38:42.700Z,1.50
2023-03-17T16:41:22.951Z,1.20
2023-03-17T16:44:02.501Z,0.87
2023-03-17T16:46:35.758Z,1.50
2023-03-17T16:49:06.582Z,1.40
2023-03-17T16:51:36.410Z,1.20
2023-03-17T16:54:06.306Z,1.57
2023-03-17T16:56:35.935Z,1.40
2023-03-17T16:59:06.235Z,1.47
2023-03-17T17:01:36.597Z,2.80
2023-03-17T17:04:11.167Z,1.60
2023-03-17T17:06:40.612Z,1.67
2023-03-17T17:09:10.052Z,1.70
2023-03-17T17:11:39.499Z,1.53
2023-03-17T17:14:09.005Z,1.90
2023-03-17T17:16:43.377Z,2.20
2023-03-17T17:19:18.346Z,4.50
2023-03-17T17:21:47.796Z,3.50
2023-03-17T17:24:17.326Z,2.80
2023-03-17T17:26:46.824Z,3.50
2023-03-17T17:29:16.267Z,3.20
2023-03-17T17:31:45.831Z,4.20
2023-03-17T17:34:15.310Z,6.40
2023-03-17T17:36:45.145Z,9.23
2023-03-17T17:39:15.240Z,15.90
2023-03-17T17:41:44.710Z,14.80
2023-03-17T17:44:14.151Z,15.90
2023-03-17T17:46:43.996Z,14.50
2023-03-17T17:49:14.208Z,12.60
2023-03-17T17:51:43.641Z,13.53
2023-03-17T17:54:13.079Z,8.57
2023-03-17T17:56:44.227Z,6.83
2023-03-17T17:59:14.691Z,5.00
2023-03-17T18:01:44.175Z,4.33
2023-03-17T18:04:13.664Z,3.20
2023-03-17T18:06:43.649Z,3.47
2023-03-17T18:09:13.628Z,3.77
2023-03-17T18:11:43.083Z,4.37
2023-03-17T18:14:13.690Z,3.97
2023-03-17T18:16:43.471Z,4.97
2023-03-17T18:19:14.711Z,4.53
2023-03-17T18:21:44.575Z,4.73
2023-03-17T18:24:14.829Z,5.47
2023-03-17T18:26:44.275Z,3.43
2023-03-17T18:29:13.865Z,4.80
2023-03-17T18:31:47.894Z,3.40
2023-03-17T18:34:22.613Z,2.63
2023-03-17T18:36:53.802Z,2.17
2023-03-17T18:39:23.306Z,2.30
2023-03-17T18:41:53.253Z,2.73
2023-03-17T18:44:24.357Z,1.90
2023-03-17T18:46:53.821Z,1.87
2023-03-17T18:49:24.926Z,1.93
2023-03-17T18:51:56.466Z,2.30
2023-03-17T18:54:27.643Z,1.83
2023-03-17T18:56:58.082Z,1.83
2023-03-17T18:59:27.781Z,1.67
2023-03-17T19:01:57.399Z,1.98
2023-03-17T19:04:27.081Z,1.70
2023-03-17T19:06:56.550Z,2.33
2023-03-17T19:09:25.978Z,1.60
2023-03-17T19:11:56.015Z,2.20
2023-03-17T19:14:25.439Z,1.70
2023-03-17T19:16:54.975Z,1.70
2023-03-17T19:19:24.509Z,1.60
2023-03-17T19:21:54.384Z,1.60
2023-03-17T19:24:23.825Z,1.87
2023-03-17T19:26:53.295Z,1.73
2023-03-17T19:29:22.726Z,2.27
2023-03-17T19:31:52.196Z,2.40
2023-03-17T19:34:22.932Z,2.53
2023-03-17T19:36:52.678Z,2.50
2023-03-17T19:39:23.150Z,3.90
2023-03-17T19:41:55.295Z,5.60
2023-03-17T19:44:25.066Z,4.10
2023-03-17T19:46:54.522Z,5.07
2023-03-17T19:49:23.964Z,3.20
2023-03-17T19:51:53.425Z,2.50
2023-03-17T19:54:23.456Z,2.30
2023-03-17T19:56:53.092Z,2.10
2023-03-17T19:59:22.961Z,2.20
2023-03-17T20:01:52.639Z,2.60
2023-03-17T20:04:23.197Z,2.63
2023-03-17T20:06:54.478Z,2.40
2023-03-17T20:09:26.141Z,2.90
2023-03-17T20:11:56.559Z,2.40
2023-03-17T20:14:26.249Z,2.43
2023-03-17T20:16:56.267Z,2.40
2023-03-17T20:19:26.159Z,1.90
2023-03-17T20:21:57.439Z,2.33
2023-03-17T20:24:29.009Z,1.87
2023-03-17T20:26:59.564Z,3.07
2023-03-17T20:29:29.421Z,3.00
2023-03-17T20:31:59.057Z,2.40
2023-03-17T20:34:28.668Z,2.70
2023-03-17T20:36:58.695Z,2.57
2023-03-17T20:39:28.126Z,2.77
2023-03-17T20:41:57.836Z,2.20
2023-03-17T20:44:27.277Z,2.40
2023-03-17T20:46:56.854Z,3.23
2023-03-17T20:49:26.797Z,2.17
2023-03-17T20:51:56.285Z,2.13
2023-03-17T20:54:25.790Z,2.07
2023-03-17T20:56:56.686Z,2.63
2023-03-17T20:59:26.288Z,2.83
2023-03-17T21:01:55.999Z,2.33
2023-03-17T21:04:25.499Z,2.57
2023-03-17T21:06:54.941Z,2.30
2023-03-17T21:09:24.658Z,2.57
2023-03-17T21:11:54.116Z,2.63
2023-03-17T21:14:23.708Z,2.93
2023-03-17T21:16:53.396Z,2.50
2023-03-17T21:19:23.385Z,3.33
2023-03-17T21:21:52.936Z,2.97
2023-03-17T21:24:31.891Z,2.37
2023-03-17T21:27:04.391Z,2.80
2023-03-17T21:29:36.162Z,3.30
2023-03-17T21:32:08.486Z,3.10
2023-03-17T21:34:38.890Z,2.70
2023-03-17T21:37:08.565Z,2.80
2023-03-17T21:39:38.011Z,2.63
2023-03-17T21:42:09.206Z,2.60
2023-03-17T21:44:39.307Z,2.80
2023-03-17T21:47:08.759Z,2.50
2023-03-17T21:49:38.267Z,3.07
2023-03-17T21:52:08.176Z,2.97
2023-03-17T21:54:38.338Z,2.73
2023-03-17T21:57:07.866Z,2.40
2023-03-17T21:59:37.356Z,1.87
2023-03-17T22:02:06.942Z,2.40
2023-03-17T22:04:36.387Z,3.00
2023-03-17T22:07:05.827Z,2.50
2023-03-17T22:09:36.026Z,4.37
2023-03-17T22:12:06.043Z,2.90
2023-03-17T22:14:35.940Z,3.10
2023-03-17T22:17:06.015Z,2.83
2023-03-17T22:19:35.943Z,3.23
2023-03-17T22:22:05.753Z,2.97
2023-03-17T22:24:35.272Z,2.90
2023-03-17T22:27:05.865Z,3.10
2023-03-17T22:29:35.438Z,2.60
2023-03-17T22:32:05.298Z,2.80
2023-03-17T22:34:35.305Z,2.07
2023-03-17T22:37:05.611Z,2.30
2023-03-17T22:39:35.351Z,2.50
2023-03-17T22:42:04.940Z,2.37
2023-03-17T22:44:34.392Z,2.70
2023-03-17T22:47:04.104Z,3.03
2023-03-17T22:49:33.551Z,3.10
2023-03-17T22:52:02.981Z,3.10
2023-03-17T22:54:32.435Z,2.20
2023-03-17T22:57:03.441Z,2.83
2023-03-17T22:59:33.117Z,2.30
2023-03-17T23:02:02.642Z,2.30
2023-03-17T23:04:33.630Z,3.03
2023-03-17T23:07:03.140Z,3.50
2023-03-17T23:09:33.024Z,3.23
2023-03-17T23:12:02.549Z,3.60
2023-03-17T23:14:31.989Z,2.90
2023-03-17T23:17:01.439Z,3.60
2023-03-17T23:19:30.876Z,3.57
2023-03-17T23:22:00.313Z,3.22
2023-03-17T23:24:29.841Z,2.87
2023-03-17T23:26:59.319Z,3.20
2023-03-17T23:29:28.728Z,3.23
2023-03-17T23:31:58.645Z,3.00
2023-03-17T23:34:28.710Z,3.07
2023-03-17T23:36:58.144Z,3.30
2023-03-17T23:39:27.624Z,3.40
2023-03-17T23:41:57.177Z,2.90
2023-03-17T23:44:27.218Z,3.23
2023-03-17T23:46:57.096Z,3.90
2023-03-17T23:49:27.388Z,2.40
2023-03-17T23:51:57.698Z,3.90
2023-03-17T23:54:27.929Z,3.07
2023-03-17T23:56:57.357Z,2.90
2023-03-17T23:59:29.216Z,3.13
